Time;durP1;ratioP1;P1;durP2;ratioP2;P2;SDS_P1;SDS_P2;PMS_P1;PMS_P2;Temp;Humidity;BMP_temperature;BMP_pressure;BME280_temperature;BME280_humidity;BME280_pressure;Samples;Min_cycle;Max_cycle;Signal;HPM_P1;HPM_P2
2022/06/22 00:01:36;;;;;;;16.13;7.90;;;;;;;23.00;nan;94863.16;6274537;22;20078;-83
2022/06/22 00:04:03;;;;;;;17.58;7.57;;;;;;;23.40;nan;94908.66;6273121;22;20462;-82
2022/06/22 00:06:36;;;;;;;11.50;8.23;;;;;;;22.77;nan;94819.09;6273248;22;20013;-83
2022/06/22 00:09:03;;;;;;;19.73;8.25;;;;;;;22.70;nan;94776.47;6273861;22;20443;-82
2022/06/22 00:11:29;;;;;;;18.48;8.82;;;;;;;23.51;nan;94901.53;6273923;22;20004;-82
2022/06/22 00:13:58;;;;;;;14.50;8.57;;;;;;;22.87;nan;94786.06;6274568;22;20113;-83
2022/06/22 00:16:27;;;;;;;13.25;7.80;;;;;;;23.33;nan;94840.91;6273149;22;20149;-83
2022/06/22 00:18:55;;;;;;;15.80;7.70;;;;;;;23.28;nan;94831.16;6272750;22;20019;-83
2022/06/22 00:21:23;;;;;;;17.65;8.52;;;;;;;23.76;nan;94924.38;6272374;22;20011;-83
2022/06/22 00:23:52;;;;;;;17.10;8.43;;;;;;;23.95;nan;94918.09;6274671;22;20004;-83
2022/06/22 00:26:24;;;;;;;16.30;8.10;;;;;;;24.10;nan;94917.16;6272769;22;20007;-82
2022/06/22 00:28:58;;;;;;;16.85;8.82;;;;;;;24.16;nan;94907.56;6275325;22;20054;-83
2022/06/22 00:31:32;;;;;;;20.15;8.60;;;;;;;23.43;nan;94868.13;6272697;22;20015;-82
2022/06/22 00:34:02;;;;;;;18.83;8.55;;;;;;;23.46;nan;94867.41;6272910;22;20007;-83
2022/06/22 00:36:39;;;;;;;15.98;8.98;;;;;;;23.43;nan;94907.94;6274632;22;20031;-83
2022/06/22 00:39:16;;;;;;;19.95;8.82;;;;;;;23.02;nan;94867.06;6274298;22;20027;-83
2022/06/22 00:41:46;;;;;;;16.52;8.95;;;;;;;23.12;nan;94897.34;6272462;22;20043;-83
2022/06/22 00:44:14;;;;;;;15.02;9.88;;;;;;;22.83;nan;94858.19;6274830;22;20000;-83
2022/06/22 00:46:52;;;;;;;17.17;9.48;;;;;;;23.21;nan;94892.47;6272693;22;20011;-83
2022/06/22 00:49:21;;;;;;;18.90;9.48;;;;;;;23.09;nan;94878.00;6274604;22;20371;-82
2022/06/22 00:51:47;;;;;;;24.23;9.40;;;;;;;23.02;nan;94879.81;6273590;22;20390;-82
2022/06/22 00:54:19;;;;;;;25.33;10.40;;;;;;;22.56;nan;94832.97;6272747;22;20019;-83
2022/06/22 00:56:47;;;;;;;14.68;9.15;;;;;;;23.16;nan;94912.50;6273912;22;20014;-83
2022/06/22 00:59:31;;;;;;;17.15;9.65;;;;;;;23.23;nan;94909.94;6273982;22;20019;-83
2022/06/22 01:02:11;;;;;;;18.05;9.60;;;;;;;23.29;nan;94907.69;6273862;22;20011;-83
2022/06/22 01:04:48;;;;;;;15.43;9.07;;;;;;;22.68;nan;94822.75;6273767;22;20004;-83
2022/06/22 01:07:33;;;;;;;22.85;10.48;;;;;;;23.21;nan;94911.41;6274218;22;20007;-83
2022/06/22 01:10:05;;;;;;;18.58;9.55;;;;;;;23.20;nan;94907.94;6263293;22;20008;-83
2022/06/22 01:12:42;;;;;;;17.08;9.60;;;;;;;23.28;nan;94898.00;6274443;22;20057;-83
2022/06/22 01:15:30;;;;;;;22.88;9.65;;;;;;;22.75;nan;94835.66;6274774;22;20008;-83
2022/06/22 01:18:10;;;;;;;14.60;9.52;;;;;;;23.19;nan;94892.06;6274687;22;20372;-83
2022/06/22 01:21:03;;;;;;;19.13;9.02;;;;;;;23.21;nan;94895.19;6274104;22;20007;-83
2022/06/22 01:24:11;;;;;;;18.92;9.40;;;;;;;23.19;nan;94892.84;6271948;22;20008;-83
2022/06/22 01:26:49;;;;;;;16.35;9.30;;;;;;;22.59;nan;94830.31;6220963;22;20012;-82
2022/06/22 01:29:21;;;;;;;17.38;9.68;;;;;;;23.03;nan;94874.03;6274027;22;20027;-84
2022/06/22 01:31:52;;;;;;;19.23;9.30;;;;;;;23.16;nan;94890.88;6274881;22;20053;-82
2022/06/22 01:34:19;;;;;;;18.60;9.40;;;;;;;22.59;nan;94806.00;6272742;22;20473;-83
2022/06/22 01:36:45;;;;;;;21.13;10.40;;;;;;;22.82;nan;94851.22;6274284;22;20015;-83
2022/06/22 01:39:14;;;;;;;18.90;9.93;;;;;;;23.12;nan;94884.59;6274033;22;20039;-83
2022/06/22 01:41:55;;;;;;;14.50;9.82;;;;;;;22.77;nan;94819.09;6272074;22;20091;-83
2022/06/22 01:44:23;;;;;;;29.67;10.38;;;;;;;23.29;nan;94883.34;6272330;22;20335;-83
2022/06/22 01:46:52;;;;;;;14.68;9.63;;;;;;;23.29;nan;94886.84;6273836;22;20007;-82
2022/06/22 01:49:30;;;;;;;15.77;10.07;;;;;;;22.89;nan;94792.63;6270935;22;20078;-83
2022/06/22 01:52:10;;;;;;;24.65;10.00;;;;;;;23.08;nan;94800.69;6271898;22;20039;-83
2022/06/22 01:54:48;;;;;;;13.43;9.23;;;;;;;23.22;nan;94832.59;6273675;22;20054;-83
2022/06/22 01:57:25;;;;;;;19.27;10.45;;;;;;;22.79;nan;94771.63;6273999;22;20058;-83
2022/06/22 02:00:01;;;;;;;18.35;10.23;;;;;;;22.77;nan;94809.06;6271394;22;20019;-83
2022/06/22 02:02:38;;;;;;;18.83;9.43;;;;;;;23.41;nan;94881.25;6272042;22;20008;-83
2022/06/22 02:05:43;;;;;;;13.25;9.43;;;;;;;23.07;nan;94809.97;6272189;22;20008;-83
2022/06/22 02:08:26;;;;;;;20.25;9.43;;;;;;;22.66;nan;94781.00;6272236;22;20435;-83
2022/06/22 02:11:01;;;;;;;21.70;9.85;;;;;;;23.05;nan;94838.50;6271132;22;20027;-83
2022/06/22 02:13:28;;;;;;;18.35;9.57;;;;;;;23.31;nan;94868.31;6273249;22;20003;-83
2022/06/22 02:16:14;;;;;;;14.82;9.48;;;;;;;23.25;nan;94877.09;6273175;22;20030;-83
2022/06/22 02:18:49;;;;;;;18.33;9.85;;;;;;;22.80;nan;94819.16;6271791;22;20454;-83
2022/06/22 02:21:37;;;;;;;17.55;9.25;;;;;;;23.18;nan;94863.47;6271418;22;20090;-83
2022/06/22 02:24:13;;;;;;;22.17;10.30;;;;;;;22.50;nan;94751.41;6274247;22;20516;-83
2022/06/22 02:26:44;;;;;;;18.63;10.07;;;;;;;22.96;nan;94819.81;6273755;22;20433;-83
2022/06/22 02:29:11;;;;;;;;;;;;;;;23.30;nan;94876.78;6273978;22;19999;-83
2022/06/22 02:31:37;;;;;;;20.48;10.00;;;;;;;23.28;nan;94874.44;6273533;22;19990;-83
2022/06/22 02:34:02;;;;;;;18.70;10.50;;;;;;;22.94;nan;94837.53;6272073;22;20222;-83
2022/06/22 02:36:31;;;;;;;22.35;10.10;;;;;;;23.19;nan;94870.44;6272699;22;20431;-83
2022/06/22 02:39:01;;;;;;;17.15;10.48;;;;;;;22.97;nan;94826.78;6274571;22;20109;-83
2022/06/22 02:44:31;;;;;;;24.83;10.90;;;;;;;22.73;nan;94796.59;6274686;22;20026;-83
2022/06/22 02:46:59;;;;;;;18.08;9.85;;;;;;;23.24;nan;94860.09;6271532;22;20018;-83
2022/06/22 02:49:30;;;;;;;18.60;10.27;;;;;;;22.62;nan;94753.16;6273790;22;20032;-83
2022/06/22 02:51:58;;;;;;;17.17;10.63;;;;;;;22.85;nan;94793.72;6272318;22;20011;-83
2022/06/22 02:54:34;;;;;;;24.65;11.60;;;;;;;23.44;nan;94868.91;6271604;22;20380;-83
2022/06/22 02:57:09;;;;;;;23.77;11.00;;;;;;;23.59;nan;94867.22;6273789;22;20003;-83
2022/06/22 02:59:35;;;;;;;18.17;10.27;;;;;;;23.01;nan;94789.00;6270317;22;20469;-83
2022/06/22 03:02:03;;;;;;;31.67;11.15;;;;;;;23.08;nan;94806.13;6272040;22;20039;-83
2022/06/22 03:04:28;;;;;;;22.85;11.00;;;;;;;22.60;nan;94715.66;6271142;22;20007;-84
2022/06/22 03:06:55;;;;;;;18.48;11.90;;;;;;;23.06;nan;94775.16;6274099;22;20087;-83
2022/06/22 03:09:23;;;;;;;19.05;10.93;;;;;;;23.74;nan;94882.53;6272303;22;20019;-83
2022/06/22 03:11:51;;;;;;;19.40;11.60;;;;;;;23.52;nan;94854.38;6273437;22;20011;-83
2022/06/22 03:14:29;;;;;;;23.35;11.02;;;;;;;23.34;nan;94883.06;6273537;22;20489;-83
2022/06/22 03:17:03;;;;;;;20.02;11.13;;;;;;;22.46;nan;94788.38;6271550;22;20007;-83
2022/06/22 03:20:06;;;;;;;18.35;11.05;;;;;;;22.74;nan;94827.91;6275754;22;20468;-83
2022/06/22 03:22:49;;;;;;;19.15;10.82;;;;;;;21.98;nan;94727.66;6275539;22;20014;-83
2022/06/22 03:25:21;;;;;;;18.45;11.52;;;;;;;22.96;nan;94873.88;6275156;22;20041;-83
2022/06/22 03:27:52;;;;;;;25.33;11.50;;;;;;;22.56;nan;94814.03;6276031;22;20038;-83
2022/06/22 03:30:30;;;;;;;21.00;12.45;;;;;;;22.53;nan;94812.03;6275738;22;20010;-83
2022/06/22 03:33:21;;;;;;;22.45;12.98;;;;;;;22.22;nan;94775.97;6273809;22;20361;-83
2022/06/22 03:35:53;;;;;;;26.08;12.25;;;;;;;22.58;nan;94831.44;6273495;22;20447;-82
2022/06/22 03:38:25;;;;;;;21.17;12.30;;;;;;;22.69;nan;94874.91;6272723;22;20012;-82
2022/06/22 03:40:54;;;;;;;19.65;11.82;;;;;;;22.75;nan;94878.13;6273377;22;20019;-82
2022/06/22 03:43:26;;;;;;;23.90;11.75;;;;;;;22.47;nan;94822.38;6273359;22;20011;-83
2022/06/22 03:46:11;;;;;;;23.90;11.93;;;;;;;22.92;nan;94883.09;6273449;22;20358;-83
2022/06/22 03:48:44;;;;;;;23.15;13.52;;;;;;;22.61;nan;94825.34;6273526;22;20446;-83
2022/06/22 03:51:26;;;;;;;24.02;12.65;;;;;;;23.16;nan;94873.84;6275169;22;20160;-83
2022/06/22 03:54:03;;;;;;;22.25;12.05;;;;;;;23.27;nan;94883.69;6273764;22;20068;-83
2022/06/22 03:56:33;;;;;;;20.63;12.27;;;;;;;23.13;nan;94852.91;6271725;22;20443;-84
2022/06/22 03:59:03;;;;;;;22.57;12.97;;;;;;;23.19;nan;94854.22;6248440;22;20004;-83
2022/06/22 04:01:29;;;;;;;26.27;13.70;;;;;;;22.67;nan;94796.88;6275151;22;20026;-84
2022/06/22 04:03:56;;;;;;;32.85;13.20;;;;;;;23.07;nan;94842.41;6275077;22;20090;-84
2022/06/22 04:06:27;;;;;;;24.80;13.85;;;;;;;23.49;nan;94895.72;6271219;22;20060;-84
2022/06/22 04:08:53;;;;;;;26.63;13.38;;;;;;;22.99;nan;94819.09;6270871;22;20025;-84
2022/06/22 04:11:28;;;;;;;22.35;12.43;;;;;;;22.60;nan;94777.81;6272256;22;20035;-83
2022/06/22 04:14:21;;;;;;;21.67;12.43;;;;;;;23.46;nan;94899.88;6272164;22;20058;-84
2022/06/22 04:16:54;;;;;;;24.42;13.77;;;;;;;22.75;nan;94797.03;6270259;22;20008;-83
2022/06/22 04:19:28;;;;;;;35.65;13.05;;;;;;;23.52;nan;94886.84;6272610;22;20007;-83
2022/06/22 04:22:09;;;;;;;25.45;12.93;;;;;;;22.57;nan;94754.25;6273037;22;20462;-83
2022/06/22 04:24:49;;;;;;;20.88;12.80;;;;;;;23.54;nan;94881.88;6271101;22;20004;-83
2022/06/22 04:27:23;;;;;;;18.88;11.60;;;;;;;23.46;nan;94880.16;6269991;22;20016;-83
2022/06/22 04:30:19;;;;;;;24.52;11.35;;;;;;;23.40;nan;94878.91;6268490;22;20612;-83
2022/06/22 04:32:55;;;;;;;24.27;11.63;;;;;;;22.54;nan;94797.41;6267397;22;20063;-83
2022/06/22 04:35:42;;;;;;;23.15;12.45;;;;;;;23.08;nan;94892.66;6269336;22;20003;-83
2022/06/22 04:38:49;;;;;;;26.48;11.18;;;;;;;23.17;nan;94895.13;6264457;22;20574;-83
2022/06/22 04:41:18;;;;;;;13.85;10.80;;;;;;;23.08;nan;94887.25;6223440;22;20366;-82
2022/06/22 04:43:46;;;;;;;18.15;11.60;;;;;;;22.60;nan;94823.00;6266641;22;20016;-83
2022/06/22 04:46:16;;;;;;;17.83;10.60;;;;;;;23.16;nan;94884.66;6261220;22;20015;-82
2022/06/22 04:48:46;;;;;;;19.65;11.20;;;;;;;23.14;nan;94895.84;6261811;22;20015;-83
2022/06/22 04:51:23;;;;;;;20.45;11.60;;;;;;;22.60;nan;94850.78;6268740;22;20004;-82
2022/06/22 04:53:56;;;;;;;21.38;11.18;;;;;;;22.54;nan;94840.63;6266587;22;20008;-83
2022/06/22 04:56:31;;;;;;;18.67;11.77;;;;;;;22.93;nan;94909.78;6266838;22;20025;-82
2022/06/22 04:58:59;;;;;;;23.33;10.73;;;;;;;22.61;nan;94856.97;6265566;22;20011;-82
2022/06/22 05:01:34;;;;;;;19.45;10.55;;;;;;;23.02;nan;94917.66;6270273;22;20022;-83
2022/06/22 05:04:24;;;;;;;23.55;12.18;;;;;;;23.14;nan;94914.78;6267304;22;20466;-83
2022/06/22 05:07:29;;;;;;;24.05;12.07;;;;;;;23.28;nan;94919.66;6260378;22;20030;-83
2022/06/22 05:10:05;;;;;;;20.20;10.90;;;;;;;22.47;nan;94819.66;6268145;22;20014;-83
2022/06/22 05:12:55;;;;;;;14.95;11.20;;;;;;;22.64;nan;94846.25;6263812;22;20773;-82
2022/06/22 05:15:26;;;;;;;19.55;11.60;;;;;;;23.13;nan;94926.75;6268108;22;20081;-83
2022/06/22 05:17:53;;;;;;;19.60;11.68;;;;;;;22.57;nan;94826.41;6268445;22;20030;-83
2022/06/22 05:20:18;;;;;;;23.00;11.52;;;;;;;23.06;nan;94932.81;6268098;22;20004;-83
2022/06/22 05:22:43;;;;;;;18.73;11.32;;;;;;;;;;6265891;22;20370;-83
2022/06/22 05:25:13;;;;;;;26.23;12.85;;;;;;;22.40;nan;94794.44;6265808;22;20732;-82
2022/06/22 05:28:04;;;;;;;22.35;13.45;;;;;;;23.19;nan;94909.06;6265092;22;20010;-82
2022/06/22 05:30:33;;;;;;;;;;;;;;;23.46;nan;94918.84;6262904;22;20096;-83
2022/06/22 05:33:05;;;;;;;26.48;12.73;;;;;;;23.68;nan;94913.78;6258469;22;19993;-83
2022/06/22 05:35:40;;;;;;;29.70;14.23;;;;;;;23.27;nan;94834.22;6262114;22;20087;-83
2022/06/22 05:38:09;;;;;;;29.08;12.82;;;;;;;23.15;nan;94786.50;6263634;22;20018;-83
2022/06/22 05:40:37;;;;;;;25.45;12.85;;;;;;;23.24;nan;94824.91;6264690;22;20027;-84
2022/06/22 05:43:04;;;;;;;25.75;12.05;;;;;;;23.49;nan;94897.63;6261789;22;20007;-84
2022/06/22 05:45:37;;;;;;;18.70;12.02;;;;;;;23.07;nan;94850.53;6260333;22;20068;-85
2022/06/22 05:48:04;;;;;;;19.13;11.52;;;;;;;22.92;nan;94821.69;6265279;22;19995;-84
2022/06/22 05:50:45;;;;;;;22.27;11.63;;;;;;;23.26;nan;94898.41;6260429;22;20042;-85
2022/06/22 05:53:15;;;;;;;;;;;;;;;23.50;nan;94937.84;6258921;22;20023;-84
2022/06/22 05:56:13;;;;;;;15.23;10.75;;;;;;;23.17;nan;94903.25;6259105;22;20474;-84
2022/06/22 05:58:54;;;;;;;18.88;11.45;;;;;;;23.20;nan;94899.03;6262405;22;20153;-85
2022/06/22 06:01:46;;;;;;;24.48;10.90;;;;;;;23.21;nan;94914.13;6264461;22;20069;-84
2022/06/22 06:04:26;;;;;;;22.10;12.48;;;;;;;23.16;nan;94888.16;6263877;22;20103;-84
2022/06/22 06:06:55;;;;;;;21.08;11.80;;;;;;;22.69;nan;94818.94;6265007;22;20018;-85
2022/06/22 06:09:24;;;;;;;23.23;11.32;;;;;;;23.14;nan;94860.69;6262648;22;20016;-84
2022/06/22 06:11:53;;;;;;;17.33;11.35;;;;;;;23.46;nan;94899.88;6259528;22;20015;-84
2022/06/22 06:14:46;;;;;;;15.32;11.00;;;;;;;23.28;nan;94877.16;6259432;22;20008;-84
2022/06/22 06:17:21;;;;;;;18.33;11.30;;;;;;;23.16;nan;94881.97;6258484;22;20094;-82
2022/06/22 06:19:51;;;;;;;17.48;11.13;;;;;;;23.40;nan;94914.88;6258278;22;20019;-83
2022/06/22 06:22:17;;;;;;;21.90;12.18;;;;;;;23.20;nan;94910.63;6258443;22;20338;-84
2022/06/22 06:27:38;;;;;;;20.15;11.48;;;;;;;23.57;nan;94929.88;6264675;22;20023;-84
2022/06/22 06:30:27;;;;;;;24.30;12.32;;;;;;;23.63;nan;94925.72;6263420;22;20026;-85
2022/06/22 06:33:05;;;;;;;19.40;11.30;;;;;;;23.73;nan;94919.66;6262482;22;20547;-84
2022/06/22 06:35:50;;;;;;;17.90;11.88;;;;;;;23.50;nan;94878.31;6260817;22;20049;-84
2022/06/22 06:38:38;;;;;;;20.65;11.68;;;;;;;23.85;nan;94910.59;6259435;22;20106;-83
2022/06/22 06:41:20;;;;;;;16.58;11.68;;;;;;;23.90;nan;94888.59;6264403;22;20011;-84
2022/06/22 06:43:51;;;;;;;24.40;13.73;;;;;;;24.00;nan;94906.94;6259549;22;20108;-83
2022/06/22 06:46:38;;;;;;;23.33;13.23;;;;;;;23.96;nan;94911.50;6257812;22;20007;-84
2022/06/22 06:49:09;;;;;;;18.08;12.00;;;;;;;23.98;nan;94917.34;6258934;22;20014;-83
2022/06/22 06:51:40;;;;;;;18.48;13.52;;;;;;;24.02;nan;94917.41;6262625;22;20007;-83
2022/06/22 06:54:25;;;;;;;16.95;12.25;;;;;;;23.58;nan;94833.97;6259220;22;20050;-83
2022/06/22 06:57:12;;;;;;;24.67;13.45;;;;;;;23.51;nan;94797.91;6261293;22;20027;-83
2022/06/22 06:59:41;;;;;;;23.65;13.65;;;;;;;23.36;nan;94783.34;6263230;22;20027;-83
2022/06/22 07:02:37;;;;;;;17.65;12.85;;;;;;;24.25;nan;94901.91;6263506;22;20035;-83
2022/06/22 07:05:07;;;;;;;20.40;12.43;;;;;;;23.82;nan;94816.53;6259901;22;20011;-83
2022/06/22 07:07:47;;;;;;;22.77;12.60;;;;;;;24.46;nan;94899.47;6259430;22;20046;-83
2022/06/22 07:10:23;;;;;;;31.00;13.77;;;;;;;24.52;nan;94895.28;6262984;22;20012;-83
2022/06/22 07:12:58;;;;;;;29.73;14.40;;;;;;;23.95;nan;94800.84;6259631;22;20412;-84
2022/06/22 07:15:33;;;;;;;18.83;13.68;;;;;;;24.01;nan;94788.53;6258984;22;20124;-84
2022/06/22 07:18:02;;;;;;;23.58;13.80;;;;;;;23.76;nan;94766.56;6260081;22;20042;-84
2022/06/22 07:20:36;;;;;;;17.27;13.52;;;;;;;24.64;nan;94891.56;6262090;22;20018;-85
2022/06/22 07:23:40;;;;;;;18.20;13.10;;;;;;;24.68;nan;94908.63;6264494;22;20659;-84
2022/06/22 07:26:23;;;;;;;24.52;13.40;;;;;;;24.58;nan;94879.47;6224683;22;20600;-84
2022/06/22 07:28:57;;;;;;;23.90;13.93;;;;;;;24.41;nan;94836.69;6258669;22;20000;-84
2022/06/22 07:31:33;;;;;;;23.52;13.60;;;;;;;24.92;nan;94886.47;6258325;22;20118;-84
2022/06/22 07:34:14;;;;;;;25.52;13.20;;;;;;;24.46;nan;94812.72;6261311;22;20004;-84
2022/06/22 07:36:45;;;;;;;;;;;;;;;24.95;nan;94895.78;6256884;22;20077;-84
2022/06/22 07:39:16;;;;;;;16.08;14.38;;;;;;;24.46;nan;94817.38;6263533;22;20326;-85
2022/06/22 07:41:42;;;;;;;28.33;13.65;;;;;;;24.50;nan;94812.75;6262956;22;20011;-85
2022/06/22 07:44:18;;;;;;;23.42;13.43;;;;;;;25.02;nan;94886.97;6260456;22;20004;-82
2022/06/22 07:47:00;;;;;;;25.30;14.35;;;;;;;24.90;nan;94875.22;6259778;22;20077;-83
2022/06/22 07:49:31;;;;;;;22.25;14.80;;;;;;;25.01;nan;94859.06;6262877;22;20042;-84
2022/06/22 07:52:01;;;;;;;21.95;15.48;;;;;;;25.48;nan;94890.13;6261341;22;20046;-83
2022/06/22 07:54:37;;;;;;;42.10;24.80;;;;;;;25.45;nan;94904.41;6259159;22;20023;-82
2022/06/22 07:57:21;;;;;;;42.55;27.17;;;;;;;25.54;nan;94915.75;6261669;22;20012;-83
2022/06/22 08:00:12;;;;;;;43.33;25.20;;;;;;;25.37;nan;94871.78;6259993;22;20069;-83
2022/06/22 08:03:17;;;;;;;39.88;21.52;;;;;;;25.68;nan;94896.88;6261097;22;20039;-84
2022/06/22 08:05:45;;;;;;;38.35;21.67;;;;;;;25.39;nan;94833.41;6261616;22;20016;-85
2022/06/22 08:08:22;;;;;;;31.55;21.08;;;;;;;25.33;nan;94826.75;6267520;22;20086;-84
2022/06/22 08:10:55;;;;;;;36.10;20.40;;;;;;;25.99;nan;94912.66;6263770;22;20638;-84
2022/06/22 08:13:24;;;;;;;32.97;20.90;;;;;;;24.88;nan;94738.38;6263981;22;20035;-84
2022/06/22 08:15:52;;;;;;;33.55;22.10;;;;;;;25.64;nan;94858.84;6265330;22;20016;-85
2022/06/22 08:18:19;;;;;;;42.40;21.77;;;;;;;25.43;nan;94836.94;6265996;22;20036;-84
2022/06/22 08:20:46;;;;;;;32.28;21.10;;;;;;;25.92;nan;94881.94;6266297;22;20007;-84
2022/06/22 08:23:24;;;;;;;26.05;20.05;;;;;;;25.98;nan;94918.47;6265443;22;20011;-84
2022/06/22 08:25:52;;;;;;;33.65;22.58;;;;;;;25.62;nan;94866.59;6262058;22;20402;-85
2022/06/22 08:28:20;;;;;;;40.25;21.83;;;;;;;25.45;nan;94810.19;6264240;22;20004;-84
2022/06/22 08:30:49;;;;;;;28.00;20.98;;;;;;;25.10;nan;94766.50;6264523;22;20376;-84
2022/06/22 08:33:21;;;;;;;29.67;19.98;;;;;;;25.81;nan;94881.06;6265086;22;20012;-84
2022/06/22 08:36:00;;;;;;;28.10;20.83;;;;;;;25.57;nan;94860.69;6257671;22;20015;-83
2022/06/22 08:38:34;;;;;;;24.38;19.15;;;;;;;24.46;nan;94654.75;6266048;22;20426;-84
2022/06/22 08:41:33;;;;;;;28.13;18.30;;;;;;;22.87;nan;94450.81;6262839;22;20675;-85
2022/06/22 08:44:17;;;;;;;28.17;16.25;;;;;;;25.88;nan;94902.84;6258843;22;20011;-84
2022/06/22 08:47:27;;;;;;;26.58;16.83;;;;;;;24.34;nan;94693.72;6262108;22;20015;-84
2022/06/22 08:50:26;;;;;;;26.92;16.25;;;;;;;25.84;nan;94891.19;6227926;23;20480;-84
2022/06/22 08:53:16;;;;;;;29.20;15.80;;;;;;;25.87;nan;94893.13;6261650;22;20019;-84
2022/06/22 08:55:57;;;;;;;18.73;15.07;;;;;;;25.89;nan;94896.25;6262983;22;20011;-84
2022/06/22 08:59:06;;;;;;;30.63;16.60;;;;;;;25.66;nan;94866.59;6266891;22;20119;-84
2022/06/22 09:02:06;;;;;;;26.85;17.30;;;;;;;25.97;nan;94867.97;6232103;22;20018;-84
2022/06/22 09:05:13;;;;;;;25.52;15.23;;;;;;;26.18;nan;94878.19;6261758;22;20086;-84
2022/06/22 09:08:08;;;;;;;30.10;13.75;;;;;;;26.31;nan;94882.97;6256712;22;20095;-84
2022/06/22 09:11:01;;;;;;;26.13;15.43;;;;;;;26.23;nan;94872.41;6263261;22;20020;-84
2022/06/22 09:13:42;;;;;;;22.90;13.40;;;;;;;26.27;nan;94854.19;6262835;22;20584;-84
2022/06/22 09:16:33;;;;;;;24.45;12.93;;;;;;;26.27;nan;94873.22;6260314;22;20666;-84
2022/06/22 09:19:16;;;;;;;20.45;12.23;;;;;;;26.41;nan;94876.78;6260626;22;20014;-84
2022/06/22 09:22:22;;;;;;;24.98;12.48;;;;;;;26.42;nan;94861.25;6259191;22;20023;-84
2022/06/22 09:25:01;;;;;;;22.63;12.65;;;;;;;26.40;nan;94860.84;6235244;22;20098;-84
2022/06/22 09:27:41;;;;;;;20.20;12.32;;;;;;;26.11;nan;94811.78;6261140;22;20054;-84
2022/06/22 09:30:38;;;;;;;23.33;12.95;;;;;;;26.48;nan;94848.84;6263675;22;20351;-84
2022/06/22 09:33:12;;;;;;;17.40;12.50;;;;;;;26.68;nan;94844.66;6259687;22;20816;-85
2022/06/22 09:36:02;;;;;;;21.35;11.77;;;;;;;26.27;nan;94819.66;6260660;22;20206;-84
2022/06/22 09:38:41;;;;;;;22.38;12.65;;;;;;;26.51;nan;94794.50;6263795;22;20051;-83
2022/06/22 09:41:21;;;;;;;21.17;12.57;;;;;;;26.41;nan;94759.09;6264583;22;20059;-83
2022/06/22 09:44:03;;;;;;;23.17;11.57;;;;;;;27.02;nan;94834.28;6262733;22;20018;-84
2022/06/22 09:47:21;;;;;;;27.55;11.95;;;;;;;26.23;nan;94734.56;6258180;22;20008;-84
2022/06/22 09:50:11;;;;;;;23.15;12.27;;;;;;;26.86;nan;94821.00;6260767;22;20007;-84
2022/06/22 09:52:43;;;;;;;22.85;11.27;;;;;;;27.14;nan;94828.47;6264786;22;20359;-83
2022/06/22 09:58:01;;;;;;;15.43;9.23;;;;;;;27.56;nan;94841.34;6264634;22;20492;-84
2022/06/22 10:00:36;;;;;;;29.45;11.55;;;;;;;27.33;nan;94781.00;6265130;22;20012;-83
2022/06/22 10:03:09;;;;;;;28.73;11.07;;;;;;;28.04;nan;94816.34;6266566;22;20007;-82
2022/06/22 10:05:50;;;;;;;24.10;10.63;;;;;;;28.75;nan;94846.94;6265665;22;20015;-83
2022/06/22 10:09:00;;;;;;;20.13;10.32;;;;;;;28.86;nan;94832.44;6265995;22;20008;-83
2022/06/22 10:11:26;;;;;;;19.87;9.23;;;;;;;29.30;nan;94868.03;6265462;22;20034;-84
2022/06/22 10:14:10;;;;;;;18.80;9.05;;;;;;;28.93;nan;94865.16;6261720;22;20019;-83
2022/06/22 10:16:53;;;;;;;17.75;9.48;;;;;;;28.09;nan;94777.00;6265670;22;20011;-83
2022/06/22 10:19:35;;;;;;;17.95;9.57;;;;;;;29.12;nan;94870.13;6266428;22;20007;-83
2022/06/22 10:22:24;;;;;;;20.52;8.85;;;;;;;28.94;nan;94842.91;6265567;22;20450;-82
2022/06/22 10:24:54;;;;;;;18.65;9.90;;;;;;;28.79;nan;94831.31;6268516;22;20072;-83
2022/06/22 10:27:37;;;;;;;20.40;10.15;;;;;;;28.78;nan;94908.09;6266535;22;20004;-84
2022/06/22 10:30:37;;;;;;;18.08;10.82;;;;;;;28.61;nan;94884.38;6266833;22;20419;-83
2022/06/22 10:33:51;;;;;;;24.10;11.10;;;;;;;28.59;nan;94884.78;6263726;22;20007;-84
2022/06/22 10:36:43;;;;;;;20.08;11.02;;;;;;;27.57;nan;94760.41;6205143;22;20087;-84
2022/06/22 10:39:21;;;;;;;16.90;10.45;;;;;;;28.11;nan;94894.63;6259913;22;20015;-83
2022/06/22 10:45:36;;;;;;;20.58;9.98;;;;;;;28.73;nan;94881.22;6264016;22;20031;-82
2022/06/22 10:48:34;;;;;;;19.63;9.90;;;;;;;29.00;nan;94819.47;6248427;22;20046;-83
2022/06/22 10:51:12;;;;;;;19.40;10.55;;;;;;;29.49;nan;94877.69;6263678;22;20102;-82
2022/06/22 10:54:02;;;;;;;18.60;10.70;;;;;;;29.64;nan;94862.75;6260552;22;20630;-82
2022/06/22 10:57:05;;;;;;;16.42;10.90;;;;;;;30.02;nan;94858.13;6264813;22;20012;-81
2022/06/22 10:59:42;;;;;;;21.35;10.57;;;;;;;30.53;nan;94854.47;6260675;22;20103;-82
2022/06/22 11:02:33;;;;;;;17.38;9.85;;;;;;;30.69;nan;94860.16;6265145;22;20010;-82
2022/06/22 11:05:40;;;;;;;24.07;10.47;;;;;;;30.88;nan;94863.44;6264943;22;20033;-83
2022/06/22 11:08:39;;;;;;;24.83;10.13;;;;;;;31.09;nan;94851.44;6236322;22;20230;-82
2022/06/22 11:11:32;;;;;;;19.85;9.80;;;;;;;30.86;nan;94858.38;6268654;22;20439;-83
2022/06/22 11:14:35;;;;;;;15.95;9.10;;;;;;;30.38;nan;94855.81;6266493;22;20008;-82
2022/06/22 11:17:34;;;;;;;12.10;9.90;;;;;;;30.01;nan;94875.72;6264676;22;20015;-83
2022/06/22 11:20:15;;;;;;;19.88;9.73;;;;;;;30.16;nan;94849.78;6264272;22;20008;-84
2022/06/22 11:22:50;;;;;;;16.02;9.88;;;;;;;29.41;nan;94748.59;6266074;22;20012;-83
2022/06/22 11:31:51;;;;;;;20.63;10.40;;;;;;;28.95;nan;94871.00;6267284;22;20023;-83
2022/06/22 11:35:08;;;;;;;23.08;9.77;;;;;;;28.49;nan;94855.59;6266065;22;20019;-82
2022/06/22 11:37:49;;;;;;;19.33;10.93;;;;;;;28.44;nan;94861.44;6182960;22;20442;-82
2022/06/22 11:40:46;;;;;;;15.98;10.55;;;;;;;28.13;nan;94846.72;6268811;22;20024;-83
2022/06/22 11:43:22;;;;;;;19.67;11.70;;;;;;;28.01;nan;94831.53;6275189;22;20027;-82
2022/06/22 11:46:13;;;;;;;17.88;10.98;;;;;;;27.55;nan;94777.13;6276434;22;20008;-83
2022/06/22 11:48:45;;;;;;;20.38;11.48;;;;;;;27.94;nan;94864.25;6271883;22;20008;-84
2022/06/22 11:51:40;;;;;;;28.65;11.90;;;;;;;27.51;nan;94800.06;6274566;22;20107;-83
2022/06/22 11:54:23;;;;;;;26.80;11.63;;;;;;;27.99;nan;94793.03;6268331;22;20096;-83
2022/06/22 11:56:51;;;;;;;24.75;11.88;;;;;;;29.06;nan;94850.66;6270723;22;20390;-83
2022/06/22 11:59:38;;;;;;;22.92;11.73;;;;;;;29.13;nan;94858.03;6273848;22;20086;-83
2022/06/22 12:02:32;;;;;;;26.30;12.30;;;;;;;28.58;nan;94841.53;6269457;22;20394;-83
2022/06/22 12:05:16;;;;;;;20.63;11.38;;;;;;;28.79;nan;94849.63;6263684;22;20011;-83
2022/06/22 12:07:59;;;;;;;20.23;12.48;;;;;;;28.69;nan;94883.94;6267981;22;20072;-82
2022/06/22 12:10:45;;;;;;;22.45;12.27;;;;;;;28.57;nan;94851.66;6266509;22;20488;-83
2022/06/22 12:13:11;;;;;;;21.60;12.32;;;;;;;28.70;nan;94847.31;6267394;22;20073;-83
2022/06/22 12:15:55;;;;;;;18.80;11.30;;;;;;;28.75;nan;94857.84;6267975;22;20468;-83
2022/06/22 12:18:29;;;;;;;16.42;11.18;;;;;;;28.14;nan;94773.88;6268242;22;20066;-82
2022/06/22 12:21:06;;;;;;;19.13;12.05;;;;;;;29.37;nan;94859.06;6268859;22;20007;-82
2022/06/22 12:23:49;;;;;;;30.00;12.70;;;;;;;29.10;nan;94862.31;6264672;22;20042;-82
2022/06/22 12:26:39;;;;;;;18.42;11.57;;;;;;;29.19;nan;94853.69;6269315;22;20020;-82
2022/06/22 12:29:32;;;;;;;20.23;12.48;;;;;;;29.17;nan;94850.56;6269743;22;20006;-83
2022/06/22 12:32:12;;;;;;;16.30;12.35;;;;;;;29.13;nan;94784.31;6268281;22;20008;-82
2022/06/22 12:35:05;;;;;;;20.50;11.98;;;;;;;29.90;nan;94859.41;6267165;22;20312;-82
2022/06/22 12:37:38;;;;;;;26.38;11.00;;;;;;;29.05;nan;94709.09;6261888;22;20080;-83
2022/06/22 12:40:16;;;;;;;20.42;11.30;;;;;;;29.13;nan;94765.97;6268262;22;20520;-82
2022/06/22 12:42:44;;;;;;;23.67;11.25;;;;;;;30.04;nan;94852.28;6268161;22;20008;-83
2022/06/22 12:45:31;;;;;;;21.88;10.75;;;;;;;30.11;nan;94844.00;6267819;22;20157;-82
2022/06/22 12:48:18;;;;;;;23.05;10.20;;;;;;;30.14;nan;94857.63;6268001;22;20003;-83
2022/06/22 12:51:16;;;;;;;19.23;11.00;;;;;;;29.81;nan;94852.84;6264500;22;20038;-83